메인 페이지
METAR-TAF:

METAR-TAF

공항 :

Atoka Municipal Airport

Atoka, 오클라호마, 미국

위도: 34-23-54N, 경도: 096-08-53W, 고도: 180m

현재 날씨관측

예보는 39분 전, 13:55시(UTC)에 발표되었습니다.
무풍
온도 0°C
습도 100%
기압 1024 hPa
시정: 8.0km
맑음
박무

METAR: KAQR 191355Z AUTO 00000KT 5SM BR CLR 00/00 A3025 RMK AO2

시각: 09:34 (14:34 UTC)


TAF: 누락

4,000개 이상의 공항 관측 자료 및 예보 (METAR 및 TAF 보고).

지도상에서 검색 가능한 기상관측소가 노란 점과 빨간 점으로 표시되어 있습니다.

기상관측소 명을 보려면 표시 위로 마우스를 이동하세요.

날씨 관측과 예보를 보려면 클릭하세요.

지도 변경 : 확대하려면 엑스 표시가 있는 녹색 버튼, 축소하려면 빼기 표시가 있는 녹색 버튼, 다음 페이지의 지도를 보려면 녹색 화살표를 클릭하세요.


METAR-TAF: